Decoded Metar for TFFR (POINTE-A-PITRE in ANTILLES) (IATA:PTP) | Meteo·Mobile Aviation Weather
aviador You're here:

TFFR Decoded Metar

POINTE-A-PITRE in ANTILLES
Report Time2018-10-17 03:30:00
UTC Time2018-10-17 04:03:37
Flight Rules mvfr MVFR
Wind150° at 05 kt
W.Decomp.*RWY 12: 3.5 kt HW 3.5 kt RCW
W.Rank150° ranks 11
Current wind is below 150° avg. (7.3)
Visibility9999 m
Phenomena:Thuderstorm Rain
Clouds:Few 026 Hf
Expected CloudBase > 400 ft AGL from Temp-Dew spread
Ceiling1,300 ft
Temp25°C (ISA +10)
Dew Point24°C (94% RH)
QNH1013 hPa
Density Alt1,594 ft
Elevation36 ft
Report Wrong Elevation
Raw Report
METAR TFFR 170330Z AUTO 15005KT 120V180 9999 FEW026 25/24 Q1013 TEMPO
VRB15G25KT 1400 TSRA BKN013CB=

Extra information for TFFR:More info

Metar Taf Metar & Taf Last 4 Metars F.Rules Stats Wind Profile Meteogram Temp Stats Airport Information Weather charts Add Link Nearby VenuesMetar ALERT Operation Metar Decoded Social comments